Briefing drone pour Bourg-achard

Rechercher une autre localisation

Conditions de vol :


Nous sommes le : Dimanche 25 février 2024
Il est 23:37 UTC (00:37 LT)

Lever de soleil : 06:21 UTC (07:21 LT)
Coucher de soleil : 17:58 UTC (18:58 LT)

Météo

L'essentiel des conditions de vol

VIGILANCE MÉTÉO FRANCE - Eure (27)
Pas de vigilances particulieres
CARTE TEMSI
CARTES DES FRONTS
METAR de LFOP
LFOP 242330Z AUTO 22008KT 9999 FEW026 SCT033 04/03 Q1000

Date d'émission: 24/02/2024
Heure d'émission: 23:30 UTC
Vent: 220° pour 8 KT (15 km/h)
Visibilité horizontale: > 10 km
Plafond :
- Peu de nuages à 2600ft (792m)
- Nuages épars à 3300ft (1006m)
Température: 4 °C
Point de rosée: 3 °C
Humidité: 93%
Pression (QNH): 1000 hPa
TAF de LFOP
LFOP 230847Z 2309/2406 CNL

Conditions prévues :

Heure d'émission : Bulletin éffectué le 23 à 09:00 UTC
Prévision : Valide du 23 a 09:00 UTC au 24 a 06:00 UTC
Nuages : à 0ft (0 m)
WEBCAM POUR BOURG-ACHARD

Réglementation

Voler en sécurité

CARTES AERONAUTIQUE 1/500.000
CARTE AZBA (Reseau basse altitude)
CARTES VAC (LFOP)
SUP AIP




Chargement des AIP...
NOTAM (BOURG-ACHARD + Terrain à proximité / FIR )




Chargement des NOTAMS...
CONTACT PREFECTURE 27
Eure (27) : [email protected]


Avertissement : Les données mises à disposition sont indicatives. Oxygène Drone ne pourra être tenu responsable de dégâts causés aux biens et aux personnes.